METAR Data
IDs: Format: Raw Decoded Include TAF

Data at: 1645 UTC 03 Jul 2020

METAR for:KHCR (Heber City Muni, UT, US)
Text:KHCR 031630Z AUTO 00000KT 10SM CLR 23/03 A3021 RMK AO2
Temperature: 23.0°C ( 73°F)
Dewpoint: 3.0°C ( 37°F) [RH = 27%]
Pressure (altimeter):30.21 inches Hg (1023.1 mb)
Winds:calm
Visibility:10 or more sm (16+ km)
Ceiling:at least 12,000 feet AGL
Clouds:sky clear below 12,000 feet AGL
QC Flag:automated observation with no human augmentation